Time;durP1;ratioP1;P1;durP2;ratioP2;P2;SDS_P1;SDS_P2;PMS_P1;PMS_P2;Temp;Humidity;BMP_temperature;BMP_pressure;BME280_temperature;BME280_humidity;BME280_pressure;Samples;Min_cycle;Max_cycle;Signal;HPM_P1;HPM_P2
2021/05/24 00:00:45;;;;;;;4.20;2.65;;;;;;;;;;4419048;32;20372;-54
2021/05/24 00:03:11;;;;;;;5.50;3.08;;;;;;;;;;4419237;32;20268;-53
2021/05/24 00:05:38;;;;;;;3.47;2.53;;;;;;;;;;4419394;32;20263;-53
2021/05/24 00:08:04;;;;;;;7.03;2.80;;;;;;;;;;4419767;32;20578;-53
2021/05/24 00:10:33;;;;;;;6.97;3.05;;;;;;;;;;4419997;32;20201;-53
2021/05/24 00:13:03;;;;;;;7.35;3.35;;;;;;;;;;4419956;32;20426;-53
2021/05/24 00:15:31;;;;;;;12.20;3.08;;;;;;;;;;4419545;32;20370;-53
2021/05/24 00:17:57;;;;;;;7.47;4.03;;;;;;;;;;4419744;32;20291;-54
2021/05/24 00:20:25;;;;;;;7.53;3.08;;;;;;;;;;4404491;32;20272;-55
2021/05/24 00:22:51;;;;;;;7.97;3.80;;;;;;;;;;4404378;32;20217;-54
2021/05/24 00:25:18;;;;;;;8.73;2.53;;;;;;;;;;4390426;32;20331;-55
2021/05/24 00:27:44;;;;;;;4.78;2.85;;;;;;;;;;4404425;32;20221;-53
2021/05/24 00:30:11;;;;;;;14.57;3.85;;;;;;;;;;4404369;32;20287;-53
2021/05/24 00:32:37;;;;;;;7.60;3.37;;;;;;;;;;4418693;32;20266;-53
2021/05/24 00:35:03;;;;;;;8.60;3.28;;;;;;;;;;4419385;32;20264;-54
2021/05/24 00:37:28;;;;;;;4.90;2.92;;;;;;;;;;4418646;32;20380;-52
2021/05/24 00:39:54;;;;;;;5.53;2.28;;;;;;;;;;4418831;32;20675;-52
2021/05/24 00:42:19;;;;;;;6.15;3.37;;;;;;;;;;4405477;32;20228;-52
2021/05/24 00:44:45;;;;;;;5.32;2.72;;;;;;;;;;4405289;32;20229;-52
2021/05/24 00:47:10;;;;;;;8.73;2.72;;;;;;;;;;4419305;32;20233;-53
2021/05/24 00:49:36;;;;;;;4.32;2.72;;;;;;;;;;4419521;32;20542;-52
2021/05/24 00:52:02;;;;;;;6.75;2.70;;;;;;;;;;4419363;32;20213;-52
2021/05/24 00:54:28;;;;;;;7.20;2.72;;;;;;;;;;4419234;32;20205;-52
2021/05/24 00:56:55;;;;;;;8.93;3.15;;;;;;;;;;4419411;32;20237;-53
2021/05/24 00:59:20;;;;;;;9.88;2.75;;;;;;;;;;4419144;32;20201;-53
2021/05/24 01:01:46;;;;;;;11.43;3.12;;;;;;;;;;4418726;32;20289;-53
2021/05/24 01:04:15;;;;;;;4.87;2.75;;;;;;;;;;4418692;32;20729;-53
2021/05/24 01:06:40;;;;;;;4.62;2.53;;;;;;;;;;4418908;32;20229;-53
2021/05/24 01:09:06;;;;;;;12.27;2.95;;;;;;;;;;4418956;32;20209;-53
2021/05/24 01:11:32;;;;;;;8.45;2.37;;;;;;;;;;4419163;32;20286;-52
2021/05/24 01:13:57;;;;;;;9.60;2.65;;;;;;;;;;4418835;32;20205;-52
2021/05/24 01:16:23;;;;;;;4.00;2.90;;;;;;;;;;4418678;32;20245;-52
2021/05/24 01:18:48;;;;;;;11.07;3.78;;;;;;;;;;4413554;32;20297;-52
2021/05/24 01:21:17;;;;;;;6.85;2.87;;;;;;;;;;4403732;32;20221;-53
2021/05/24 01:23:45;;;;;;;9.57;3.20;;;;;;;;;;4403586;32;20193;-52
2021/05/24 01:26:12;;;;;;;4.30;2.70;;;;;;;;;;4403497;32;20248;-52
2021/05/24 01:28:38;;;;;;;4.87;2.92;;;;;;;;;;4403809;32;20197;-52
2021/05/24 01:31:04;;;;;;;7.03;2.45;;;;;;;;;;4408369;32;20393;-53
2021/05/24 01:33:33;;;;;;;7.28;2.87;;;;;;;;;;4418654;32;20206;-53
2021/05/24 01:36:00;;;;;;;5.07;3.00;;;;;;;;;;4418427;32;20321;-53
2021/05/24 01:38:25;;;;;;;8.63;2.47;;;;;;;;;;4418480;32;20535;-53
2021/05/24 01:40:51;;;;;;;9.30;3.00;;;;;;;;;;4418284;32;20272;-53
2021/05/24 01:43:17;;;;;;;4.60;2.62;;;;;;;;;;4418301;32;20625;-52
2021/05/24 01:45:43;;;;;;;7.25;3.03;;;;;;;;;;4418293;32;20268;-52
2021/05/24 01:48:09;;;;;;;6.87;2.78;;;;;;;;;;4418224;32;20299;-53
2021/05/24 01:50:36;;;;;;;7.03;2.75;;;;;;;;;;4418178;32;20303;-53
2021/05/24 01:53:02;;;;;;;5.43;1.83;;;;;;;;;;4418514;32;20297;-53
2021/05/24 01:55:27;;;;;;;8.45;2.15;;;;;;;;;;4418413;32;20310;-53
2021/05/24 01:57:54;;;;;;;7.68;2.20;;;;;;;;;;4418542;32;20251;-53
2021/05/24 02:00:21;;;;;;;7.62;2.67;;;;;;;;;;4418111;32;20213;-52
2021/05/24 02:02:48;;;;;;;11.93;2.55;;;;;;;;;;4418118;32;20214;-53
2021/05/24 02:05:15;;;;;;;4.70;2.53;;;;;;;;;;4404362;32;20209;-53
2021/05/24 02:07:41;;;;;;;10.13;2.75;;;;;;;;;;4418229;32;20288;-53
2021/05/24 02:10:09;;;;;;;5.53;2.35;;;;;;;;;;4418136;32;20231;-53
2021/05/24 02:12:35;;;;;;;4.03;2.37;;;;;;;;;;4418395;32;20307;-53
2021/05/24 02:15:01;;;;;;;7.05;2.40;;;;;;;;;;4417809;32;20740;-54
2021/05/24 02:17:27;;;;;;;8.43;2.87;;;;;;;;;;4404093;32;20394;-52
2021/05/24 02:19:53;;;;;;;10.73;3.78;;;;;;;;;;4405754;32;20200;-53
2021/05/24 02:22:19;;;;;;;4.22;2.78;;;;;;;;;;4402865;32;20319;-53
2021/05/24 02:24:44;;;;;;;3.95;2.40;;;;;;;;;;4402509;32;20201;-53
2021/05/24 02:27:10;;;;;;;6.28;3.03;;;;;;;;;;4402937;32;20213;-54
2021/05/24 02:29:36;;;;;;;6.35;2.97;;;;;;;;;;4402709;32;20225;-53
2021/05/24 02:32:03;;;;;;;3.53;2.47;;;;;;;;;;4414009;32;20538;-53
2021/05/24 02:34:29;;;;;;;5.93;3.22;;;;;;;;;;4417987;32;20307;-53
2021/05/24 02:36:56;;;;;;;6.78;3.85;;;;;;;;;;4417910;32;20217;-53
2021/05/24 02:39:21;;;;;;;10.85;2.95;;;;;;;;;;4417673;32;20548;-53
2021/05/24 02:41:47;;;;;;;5.15;2.85;;;;;;;;;;4417794;32;20236;-52
2021/05/24 02:44:12;;;;;;;11.57;3.12;;;;;;;;;;4417658;32;20698;-53
2021/05/24 02:46:38;;;;;;;4.78;2.70;;;;;;;;;;4417669;32;20267;-52
2021/05/24 02:49:04;;;;;;;5.57;3.08;;;;;;;;;;4417524;32;20201;-53
2021/05/24 02:51:29;;;;;;;8.93;3.37;;;;;;;;;;4417711;32;20293;-54
2021/05/24 02:53:55;;;;;;;7.90;4.18;;;;;;;;;;4417515;32;20201;-52
2021/05/24 02:56:20;;;;;;;6.32;3.30;;;;;;;;;;4417776;32;20240;-52
2021/05/24 02:58:46;;;;;;;13.82;3.30;;;;;;;;;;4403844;32;20228;-52
2021/05/24 03:01:11;;;;;;;7.05;3.67;;;;;;;;;;4417939;32;20275;-53
2021/05/24 03:03:38;;;;;;;6.25;3.05;;;;;;;;;;4420755;32;20224;-52
2021/05/24 03:06:04;;;;;;;5.40;3.37;;;;;;;;;;4420434;32;20276;-52
2021/05/24 03:08:31;;;;;;;6.70;3.55;;;;;;;;;;4420613;32;20580;-52
2021/05/24 03:10:56;;;;;;;13.80;3.90;;;;;;;;;;4420890;32;20610;-52
2021/05/24 03:13:25;;;;;;;5.60;3.53;;;;;;;;;;4420725;32;20259;-53
2021/05/24 03:15:52;;;;;;;8.20;4.05;;;;;;;;;;4420795;32;20772;-53
2021/05/24 03:18:17;;;;;;;6.75;2.70;;;;;;;;;;4418810;32;20271;-53
2021/05/24 03:20:43;;;;;;;10.40;3.83;;;;;;;;;;4405179;32;20394;-53
2021/05/24 03:23:08;;;;;;;4.97;3.10;;;;;;;;;;4405522;32;20546;-53
2021/05/24 03:25:34;;;;;;;4.28;3.05;;;;;;;;;;4405286;32;20345;-53
2021/05/24 03:27:59;;;;;;;8.65;3.30;;;;;;;;;;4405233;32;20233;-54
2021/05/24 03:30:25;;;;;;;12.57;3.50;;;;;;;;;;4406178;32;20287;-53
2021/05/24 03:32:50;;;;;;;6.78;3.35;;;;;;;;;;4420389;32;20640;-53
2021/05/24 03:35:16;;;;;;;7.07;3.62;;;;;;;;;;4420432;32;20276;-53
2021/05/24 03:37:41;;;;;;;13.20;3.83;;;;;;;;;;4420215;32;20221;-53
2021/05/24 03:40:10;;;;;;;7.62;3.10;;;;;;;;;;4420242;32;20268;-53
2021/05/24 03:42:36;;;;;;;11.73;2.85;;;;;;;;;;4420224;32;20237;-53
2021/05/24 03:45:02;;;;;;;5.25;2.47;;;;;;;;;;4419536;32;20322;-54
2021/05/24 03:47:28;;;;;;;4.03;2.47;;;;;;;;;;4419938;32;20240;-53
2021/05/24 03:49:53;;;;;;;14.40;2.75;;;;;;;;;;4419805;32;20205;-53
2021/05/24 03:52:19;;;;;;;5.47;2.50;;;;;;;;;;4420256;32;20707;-53
2021/05/24 03:54:44;;;;;;;4.43;2.33;;;;;;;;;;4420193;32;20235;-53
2021/05/24 03:57:11;;;;;;;8.38;2.72;;;;;;;;;;4420028;32;20330;-54
2021/05/24 03:59:38;;;;;;;8.90;3.80;;;;;;;;;;4419684;32;20197;-53
2021/05/24 04:02:04;;;;;;;8.82;2.80;;;;;;;;;;4420018;32;20263;-53
2021/05/24 04:04:30;;;;;;;12.18;2.92;;;;;;;;;;4419364;32;20676;-53
2021/05/24 04:06:58;;;;;;;10.15;2.62;;;;;;;;;;4419963;32;20267;-53
2021/05/24 04:09:25;;;;;;;9.30;3.00;;;;;;;;;;4419492;32;20197;-53
2021/05/24 04:11:50;;;;;;;14.02;5.60;;;;;;;;;;4419541;32;20394;-53
2021/05/24 04:14:17;;;;;;;18.37;3.42;;;;;;;;;;4419388;32;20231;-53
2021/05/24 04:16:42;;;;;;;6.45;4.07;;;;;;;;;;4419423;32;20258;-52
2021/05/24 04:19:11;;;;;;;7.57;2.95;;;;;;;;;;4412142;32;20205;-53
2021/05/24 04:21:37;;;;;;;6.53;3.47;;;;;;;;;;4404309;32;20222;-53
2021/05/24 04:24:06;;;;;;;15.77;3.90;;;;;;;;;;4404171;32;20275;-53
2021/05/24 04:26:32;;;;;;;7.03;2.80;;;;;;;;;;4404182;32;20262;-53
2021/05/24 04:28:58;;;;;;;5.45;2.70;;;;;;;;;;4404145;32;20206;-53
2021/05/24 04:31:23;;;;;;;10.18;3.37;;;;;;;;;;4411255;32;20255;-54
2021/05/24 04:33:49;;;;;;;9.32;3.87;;;;;;;;;;4419276;32;20347;-52
2021/05/24 04:36:15;;;;;;;11.90;3.20;;;;;;;;;;4419261;32;20221;-52
2021/05/24 04:38:40;;;;;;;9.13;3.80;;;;;;;;;;4419070;32;20217;-52
2021/05/24 04:41:05;;;;;;;5.12;3.00;;;;;;;;;;4419223;32;20280;-52
2021/05/24 04:43:33;;;;;;;7.85;3.00;;;;;;;;;;4419316;32;20637;-52
2021/05/24 04:45:59;;;;;;;9.38;3.53;;;;;;;;;;4405376;32;20322;-53
2021/05/24 04:48:24;;;;;;;10.25;3.92;;;;;;;;;;4419554;32;20209;-52
2021/05/24 04:50:50;;;;;;;18.17;5.32;;;;;;;;;;4418875;32;20264;-53
2021/05/24 04:53:15;;;;;;;20.45;4.93;;;;;;;;;;4418831;32;20333;-53
2021/05/24 04:55:41;;;;;;;12.63;6.22;;;;;;;;;;4419193;32;20302;-52
2021/05/24 04:58:06;;;;;;;10.65;5.35;;;;;;;;;;4418939;32;20209;-52
2021/05/24 05:00:33;;;;;;;20.15;5.97;;;;;;;;;;4419163;32;20276;-52
2021/05/24 05:02:59;;;;;;;20.05;4.55;;;;;;;;;;4419141;32;20279;-52
2021/05/24 05:05:25;;;;;;;26.33;5.30;;;;;;;;;;4418488;32;20225;-52
2021/05/24 05:07:51;;;;;;;15.23;6.22;;;;;;;;;;4419075;32;20542;-53
2021/05/24 05:10:16;;;;;;;14.68;4.00;;;;;;;;;;4418727;32;20296;-52
2021/05/24 05:12:42;;;;;;;11.90;4.47;;;;;;;;;;4418901;32;20745;-52
2021/05/24 05:15:08;;;;;;;15.10;4.37;;;;;;;;;;4418527;32;20310;-52
2021/05/24 05:17:34;;;;;;;14.55;4.22;;;;;;;;;;4418966;32;20214;-52
2021/05/24 05:19:59;;;;;;;10.00;4.65;;;;;;;;;;4406333;32;20708;-52
2021/05/24 05:22:25;;;;;;;19.60;4.28;;;;;;;;;;4403590;32;20329;-52
2021/05/24 05:24:50;;;;;;;13.07;4.72;;;;;;;;;;4403028;32;20548;-53
2021/05/24 05:27:16;;;;;;;7.93;3.97;;;;;;;;;;4403909;32;20271;-52
2021/05/24 05:29:42;;;;;;;12.82;4.30;;;;;;;;;;4403329;32;20626;-52
2021/05/24 05:32:07;;;;;;;9.07;4.50;;;;;;;;;;4403531;32;20472;-52
2021/05/24 05:34:33;;;;;;;12.25;3.92;;;;;;;;;;4403412;32;20258;-52
2021/05/24 05:36:58;;;;;;;15.13;4.20;;;;;;;;;;4403155;32;20296;-53
2021/05/24 05:39:24;;;;;;;24.08;5.57;;;;;;;;;;4408920;32;20213;-53
2021/05/24 05:41:49;;;;;;;23.02;5.35;;;;;;;;;;4403322;32;20205;-54
2021/05/24 05:44:15;;;;;;;8.88;3.65;;;;;;;;;;4403061;32;20229;-53
2021/05/24 05:46:40;;;;;;;10.68;4.10;;;;;;;;;;4402915;32;20221;-53
2021/05/24 05:49:06;;;;;;;12.63;4.47;;;;;;;;;;4403177;32;20236;-53
2021/05/24 05:51:31;;;;;;;10.88;5.47;;;;;;;;;;4403315;32;20232;-53
2021/05/24 05:53:57;;;;;;;7.78;5.35;;;;;;;;;;4403085;32;20205;-53
2021/05/24 05:56:23;;;;;;;13.13;5.70;;;;;;;;;;4403259;32;20379;-53
2021/05/24 05:58:48;;;;;;;8.30;4.43;;;;;;;;;;4403285;32;20645;-53
2021/05/24 06:01:14;;;;;;;11.38;4.00;;;;;;;;;;4403019;32;20221;-53
2021/05/24 06:03:39;;;;;;;10.57;5.03;;;;;;;;;;4403119;32;20303;-53
2021/05/24 06:06:05;;;;;;;7.12;3.70;;;;;;;;;;4402941;32;20217;-53
2021/05/24 06:08:30;;;;;;;22.20;4.12;;;;;;;;;;4403017;32;20252;-53
2021/05/24 06:10:57;;;;;;;8.55;4.03;;;;;;;;;;4403260;32;20276;-53
2021/05/24 06:13:23;;;;;;;9.68;3.85;;;;;;;;;;4403065;32;20253;-53
2021/05/24 06:15:49;;;;;;;9.60;3.78;;;;;;;;;;4402675;32;20272;-54
2021/05/24 06:18:14;;;;;;;10.77;3.05;;;;;;;;;;4404491;32;20205;-53
2021/05/24 06:20:43;;;;;;;9.23;3.45;;;;;;;;;;4418210;32;20264;-53
2021/05/24 06:23:09;;;;;;;17.75;3.30;;;;;;;;;;4418032;32;20346;-53
2021/05/24 06:25:36;;;;;;;9.93;3.10;;;;;;;;;;4417726;32;20256;-53
2021/05/24 06:28:02;;;;;;;11.90;3.47;;;;;;;;;;4417768;32;20230;-53
2021/05/24 06:30:27;;;;;;;6.18;2.90;;;;;;;;;;4416452;32;20356;-53
2021/05/24 06:32:53;;;;;;;9.88;3.30;;;;;;;;;;4402967;32;20243;-53
2021/05/24 06:35:21;;;;;;;9.90;3.67;;;;;;;;;;4402502;32;20281;-53
2021/05/24 06:37:46;;;;;;;24.05;5.32;;;;;;;;;;4389101;32;20260;-52
2021/05/24 06:40:12;;;;;;;20.92;4.32;;;;;;;;;;4388886;32;20273;-54
2021/05/24 06:42:38;;;;;;;11.50;3.97;;;;;;;;;;4402852;32;20225;-52
2021/05/24 06:45:05;;;;;;;12.48;3.35;;;;;;;;;;4402375;32;20299;-52
2021/05/24 06:47:30;;;;;;;10.55;2.62;;;;;;;;;;4402605;32;20218;-52
2021/05/24 06:49:55;;;;;;;17.62;3.92;;;;;;;;;;4402571;32;20189;-52
2021/05/24 06:52:21;;;;;;;13.07;3.33;;;;;;;;;;4402637;32;20217;-52
2021/05/24 06:54:47;;;;;;;11.20;3.72;;;;;;;;;;4402224;32;20676;-52
2021/05/24 06:57:12;;;;;;;8.77;2.90;;;;;;;;;;4388765;32;20277;-52
2021/05/24 06:59:38;;;;;;;7.35;2.75;;;;;;;;;;4388316;32;20283;-52
2021/05/24 07:02:04;;;;;;;19.00;3.33;;;;;;;;;;4402696;32;20331;-52
2021/05/24 07:04:30;;;;;;;15.48;3.83;;;;;;;;;;4402161;32;20229;-53
2021/05/24 07:06:55;;;;;;;13.07;3.75;;;;;;;;;;4402678;32;20213;-53
2021/05/24 07:09:21;;;;;;;7.90;2.72;;;;;;;;;;4402092;32;20234;-53
2021/05/24 07:11:47;;;;;;;19.67;3.95;;;;;;;;;;4402585;32;20286;-52
2021/05/24 07:14:13;;;;;;;5.10;2.42;;;;;;;;;;4401861;32;20205;-53
2021/05/24 07:16:39;;;;;;;9.85;3.12;;;;;;;;;;4402092;32;20689;-53
2021/05/24 07:19:04;;;;;;;9.63;4.03;;;;;;;;;;4407933;32;20240;-53
2021/05/24 07:21:30;;;;;;;7.75;3.05;;;;;;;;;;4417428;32;20217;-53
2021/05/24 07:23:56;;;;;;;5.90;2.75;;;;;;;;;;4417464;32;20287;-52
2021/05/24 07:26:21;;;;;;;14.57;2.80;;;;;;;;;;4417072;32;20229;-52
2021/05/24 07:28:46;;;;;;;8.23;3.40;;;;;;;;;;4416959;32;20202;-53
2021/05/24 07:31:12;;;;;;;12.10;3.40;;;;;;;;;;4410925;32;20233;-53
2021/05/24 07:33:38;;;;;;;10.32;2.67;;;;;;;;;;4402144;32;20236;-53
2021/05/24 07:36:04;;;;;;;16.87;3.12;;;;;;;;;;4401991;32;20277;-53
2021/05/24 07:38:29;;;;;;;17.23;2.80;;;;;;;;;;4401765;32;20304;-52
2021/05/24 07:40:55;;;;;;;13.55;3.42;;;;;;;;;;4401491;32;20322;-53
2021/05/24 07:43:20;;;;;;;11.40;3.05;;;;;;;;;;4401898;32;20238;-53
2021/05/24 07:45:46;;;;;;;10.52;2.80;;;;;;;;;;4401794;32;20338;-53
2021/05/24 07:48:11;;;;;;;15.70;2.85;;;;;;;;;;4403723;32;20222;-52
2021/05/24 07:50:36;;;;;;;5.45;2.67;;;;;;;;;;4404810;32;20337;-52
2021/05/24 07:53:02;;;;;;;15.25;3.30;;;;;;;;;;4404937;32;20226;-52
2021/05/24 07:55:27;;;;;;;9.88;3.30;;;;;;;;;;4404557;32;20294;-53
2021/05/24 07:57:53;;;;;;;10.23;2.92;;;;;;;;;;4404748;32;20222;-52
2021/05/24 08:00:19;;;;;;;10.27;2.97;;;;;;;;;;4404823;32;20331;-51
2021/05/24 08:02:45;;;;;;;7.97;2.30;;;;;;;;;;4404331;32;20221;-52
2021/05/24 08:05:13;;;;;;;9.85;2.70;;;;;;;;;;4404182;32;20404;-52
2021/05/24 08:07:39;;;;;;;9.45;2.97;;;;;;;;;;4404742;32;20685;-51
2021/05/24 08:10:07;;;;;;;10.52;2.80;;;;;;;;;;4404238;32;20597;-52
2021/05/24 08:12:36;;;;;;;6.70;2.42;;;;;;;;;;4404211;32;20328;-52
2021/05/24 08:15:02;;;;;;;17.10;2.83;;;;;;;;;;4404151;32;20197;-52
2021/05/24 08:17:28;;;;;;;14.90;2.33;;;;;;;;;;4404603;32;20266;-52
2021/05/24 08:19:53;;;;;;;21.42;3.10;;;;;;;;;;4415969;32;20204;-51
2021/05/24 08:22:19;;;;;;;9.85;3.17;;;;;;;;;;4419618;32;20376;-51
2021/05/24 08:24:44;;;;;;;17.37;2.42;;;;;;;;;;4418567;32;20197;-51
2021/05/24 08:27:10;;;;;;;11.77;2.25;;;;;;;;;;4419400;32;20554;-52
2021/05/24 08:29:35;;;;;;;13.88;2.72;;;;;;;;;;4419160;32;20205;-52
2021/05/24 08:32:01;;;;;;;13.38;3.03;;;;;;;;;;4407117;32;20648;-52
2021/05/24 08:34:26;;;;;;;5.82;2.60;;;;;;;;;;4402146;32;20218;-52
2021/05/24 08:36:52;;;;;;;9.32;2.20;;;;;;;;;;4402092;32;20229;-52
2021/05/24 08:39:17;;;;;;;12.80;2.97;;;;;;;;;;4401927;32;20370;-52
2021/05/24 08:41:43;;;;;;;6.93;2.53;;;;;;;;;;4402281;32;20255;-52
2021/05/24 08:44:09;;;;;;;10.38;2.25;;;;;;;;;;4401820;32;20284;-52
2021/05/24 08:46:38;;;;;;;16.75;2.25;;;;;;;;;;4401819;32;20357;-52
2021/05/24 08:49:05;;;;;;;9.13;2.83;;;;;;;;;;4404013;32;20189;-52
2021/05/24 08:51:30;;;;;;;6.55;2.22;;;;;;;;;;4404035;32;20209;-52
2021/05/24 08:53:56;;;;;;;12.63;3.55;;;;;;;;;;4403795;32;20296;-52
2021/05/24 08:56:22;;;;;;;14.10;2.65;;;;;;;;;;4403758;32;20221;-52
2021/05/24 08:58:47;;;;;;;3.85;2.35;;;;;;;;;;4402945;32;20267;-52
2021/05/24 09:01:12;;;;;;;8.70;2.17;;;;;;;;;;4403814;32;20217;-52
2021/05/24 09:03:41;;;;;;;9.73;3.50;;;;;;;;;;4403737;32;20257;-52
2021/05/24 09:06:08;;;;;;;11.73;2.58;;;;;;;;;;4403450;32;20226;-52
2021/05/24 09:08:41;;;;;;;12.88;2.78;;;;;;;;;;4403803;32;20201;-52
2021/05/24 09:11:25;;;;;;;12.50;2.85;;;;;;;;;;4403641;32;20311;-52
2021/05/24 09:13:51;;;;;;;16.90;2.90;;;;;;;;;;4403637;32;20201;-51
2021/05/24 09:16:28;;;;;;;6.62;2.20;;;;;;;;;;4403561;32;20558;-52
2021/05/24 09:19:15;;;;;;;12.50;2.78;;;;;;;;;;4409192;32;20213;-52
2021/05/24 09:21:51;;;;;;;14.50;3.42;;;;;;;;;;4418751;32;20577;-52
2021/05/24 09:24:20;;;;;;;8.10;2.12;;;;;;;;;;4418409;32;20201;-52
2021/05/24 09:26:45;;;;;;;9.85;2.87;;;;;;;;;;4418438;32;20243;-52
2021/05/24 09:29:11;;;;;;;8.32;2.33;;;;;;;;;;4418550;32;20333;-52
2021/05/24 09:31:37;;;;;;;9.82;2.65;;;;;;;;;;4410084;32;20221;-52
2021/05/24 09:34:05;;;;;;;7.95;2.85;;;;;;;;;;4403190;32;20214;-52
2021/05/24 09:36:31;;;;;;;8.25;2.65;;;;;;;;;;4403136;32;20225;-52
2021/05/24 09:39:10;;;;;;;14.10;3.25;;;;;;;;;;4403250;32;20223;-51
2021/05/24 09:41:41;;;;;;;7.30;2.50;;;;;;;;;;4403305;32;20244;-52
2021/05/24 09:44:07;;;;;;;17.52;4.07;;;;;;;;;;4403156;32;20202;-52
2021/05/24 09:46:33;;;;;;;20.85;3.00;;;;;;;;;;4403501;32;20263;-52
2021/05/24 09:49:03;;;;;;;11.48;2.10;;;;;;;;;;4403054;32;20224;-52
2021/05/24 09:51:32;;;;;;;11.43;2.45;;;;;;;;;;4403077;32;20673;-53
2021/05/24 09:54:09;;;;;;;10.98;3.37;;;;;;;;;;4402990;32;20197;-52
2021/05/24 09:56:40;;;;;;;11.70;3.00;;;;;;;;;;4403213;32;20201;-52
2021/05/24 09:59:09;;;;;;;16.25;3.00;;;;;;;;;;4402868;32;20227;-53
2021/05/24 10:01:42;;;;;;;14.00;2.40;;;;;;;;;;4402879;32;20260;-52
2021/05/24 10:04:11;;;;;;;10.38;2.50;;;;;;;;;;4402796;32;21534;-52
2021/05/24 10:06:37;;;;;;;10.18;3.17;;;;;;;;;;4403083;32;20214;-52
2021/05/24 10:09:05;;;;;;;13.40;2.90;;;;;;;;;;4402677;32;20204;-52
2021/05/24 10:11:30;;;;;;;12.88;4.72;;;;;;;;;;4402914;32;20325;-52
2021/05/24 10:13:57;;;;;;;14.27;3.08;;;;;;;;;;4402742;32;20217;-52
2021/05/24 10:16:24;;;;;;;20.02;3.35;;;;;;;;;;4402873;32;20237;-52
2021/05/24 10:18:50;;;;;;;18.60;2.20;;;;;;;;;;4408120;32;20664;-52
2021/05/24 10:21:15;;;;;;;13.55;2.78;;;;;;;;;;4417832;32;20345;-52
2021/05/24 10:23:41;;;;;;;10.43;2.80;;;;;;;;;;4417918;32;20235;-52
2021/05/24 10:26:09;;;;;;;12.65;3.78;;;;;;;;;;4417993;32;20633;-52
2021/05/24 10:28:37;;;;;;;16.12;2.72;;;;;;;;;;4417604;32;20587;-52
2021/05/24 10:31:03;;;;;;;4.43;2.00;;;;;;;;;;4413043;32;20291;-52
2021/05/24 10:33:43;;;;;;;12.57;2.90;;;;;;;;;;4402977;32;20467;-52
2021/05/24 10:36:16;;;;;;;20.15;2.75;;;;;;;;;;4402799;32;20320;-52
2021/05/24 10:38:42;;;;;;;8.43;2.30;;;;;;;;;;4402483;32;20221;-53
2021/05/24 10:41:15;;;;;;;8.65;2.70;;;;;;;;;;4402447;32;20700;-52
2021/05/24 10:43:46;;;;;;;17.15;3.22;;;;;;;;;;4402286;32;20306;-53
2021/05/24 10:46:28;;;;;;;16.15;2.75;;;;;;;;;;4402467;32;20317;-53
2021/05/24 10:49:12;;;;;;;14.98;2.75;;;;;;;;;;4402545;32;20636;-52
2021/05/24 10:51:59;;;;;;;10.80;2.75;;;;;;;;;;4402790;32;20232;-52
2021/05/24 10:54:26;;;;;;;8.23;2.97;;;;;;;;;;4402714;32;20582;-52
2021/05/24 10:56:57;;;;;;;11.82;3.58;;;;;;;;;;4402367;32;20225;-52
2021/05/24 11:02:08;;;;;;;11.95;2.65;;;;;;;;;;4402617;32;20301;-52
2021/05/24 11:04:58;;;;;;;8.23;2.90;;;;;;;;;;4402301;32;20309;-52
2021/05/24 11:07:42;;;;;;;16.73;2.30;;;;;;;;;;4402795;32;20206;-52
2021/05/24 11:10:11;;;;;;;9.02;2.20;;;;;;;;;;4388878;32;20193;-52
2021/05/24 11:12:36;;;;;;;6.97;2.10;;;;;;;;;;4402626;32;20229;-52
2021/05/24 11:15:10;;;;;;;16.60;4.15;;;;;;;;;;4402349;32;20304;-54
2021/05/24 11:18:01;;;;;;;4.82;1.95;;;;;;;;;;4402429;32;20230;-52
2021/05/24 11:20:48;;;;;;;12.00;2.50;;;;;;;;;;4402810;32;20337;-54
2021/05/24 11:26:18;;;;;;;6.93;2.15;;;;;;;;;;4405157;32;20625;-52
2021/05/24 11:28:55;;;;;;;15.57;2.87;;;;;;;;;;4405116;32;20581;-53
2021/05/24 11:31:36;;;;;;;10.45;2.65;;;;;;;;;;4412186;32;20230;-52
2021/05/24 11:34:04;;;;;;;21.30;3.40;;;;;;;;;;4420251;32;20276;-53
2021/05/24 11:36:35;;;;;;;8.98;2.70;;;;;;;;;;4406321;32;20315;-53
2021/05/24 11:39:09;;;;;;;10.02;3.30;;;;;;;;;;4420063;32;20616;-52
2021/05/24 11:41:39;;;;;;;17.98;3.00;;;;;;;;;;4420161;32;20247;-52
2021/05/24 11:44:05;;;;;;;14.10;2.55;;;;;;;;;;4419705;32;20593;-53
2021/05/24 11:46:50;;;;;;;11.88;2.50;;;;;;;;;;4419827;32;20297;-53
2021/05/24 11:49:18;;;;;;;11.50;2.30;;;;;;;;;;4419888;32;20213;-53
2021/05/24 11:51:45;;;;;;;10.43;2.42;;;;;;;;;;4419871;32;20217;-53
2021/05/24 11:54:20;;;;;;;11.30;3.60;;;;;;;;;;4419653;32;20385;-53
2021/05/24 11:56:48;;;;;;;11.07;3.15;;;;;;;;;;4419696;32;20315;-53
2021/05/24 11:59:16;;;;;;;14.32;2.62;;;;;;;;;;4419417;32;20511;-53
2021/05/24 12:01:46;;;;;;;14.68;2.90;;;;;;;;;;4419753;32;20597;-53
2021/05/24 12:04:16;;;;;;;6.35;2.30;;;;;;;;;;4405603;32;20229;-53
2021/05/24 12:06:58;;;;;;;11.80;2.67;;;;;;;;;;4419406;32;20630;-53
2021/05/24 12:09:35;;;;;;;11.32;2.95;;;;;;;;;;4406181;32;20276;-53
2021/05/24 12:12:04;;;;;;;16.92;2.72;;;;;;;;;;4419553;32;20274;-53
2021/05/24 12:14:30;;;;;;;19.80;2.65;;;;;;;;;;4419417;32;20318;-53
2021/05/24 12:16:55;;;;;;;14.52;2.62;;;;;;;;;;4419259;32;20221;-53
2021/05/24 12:19:23;;;;;;;10.73;3.25;;;;;;;;;;4410471;32;20233;-53
2021/05/24 12:21:50;;;;;;;13.80;3.08;;;;;;;;;;4404150;32;20331;-54
2021/05/24 12:24:16;;;;;;;7.10;2.22;;;;;;;;;;4403948;32;20547;-53
2021/05/24 12:26:50;;;;;;;21.85;2.65;;;;;;;;;;4403855;32;20302;-53
2021/05/24 12:29:50;;;;;;;9.52;2.37;;;;;;;;;;4403964;32;20629;-53
2021/05/24 12:32:34;;;;;;;15.45;3.12;;;;;;;;;;4416850;32;20738;-53
2021/05/24 12:35:04;;;;;;;16.02;3.25;;;;;;;;;;4419413;32;20280;-53
2021/05/24 12:37:29;;;;;;;11.35;2.87;;;;;;;;;;4405175;32;20317;-53
2021/05/24 12:39:56;;;;;;;15.35;3.03;;;;;;;;;;4418945;32;20554;-53
2021/05/24 12:42:22;;;;;;;15.20;2.90;;;;;;;;;;4418745;32;20213;-53
2021/05/24 12:44:47;;;;;;;9.63;2.53;;;;;;;;;;4418973;32;20278;-53
2021/05/24 12:47:14;;;;;;;14.23;2.53;;;;;;;;;;4418729;32;20247;-53
2021/05/24 12:49:42;;;;;;;11.43;2.30;;;;;;;;;;4419003;32;20582;-53
2021/05/24 12:52:08;;;;;;;10.73;2.00;;;;;;;;;;4419043;32;20233;-53
2021/05/24 12:54:40;;;;;;;16.12;2.60;;;;;;;;;;4419132;32;20232;-53
2021/05/24 12:57:06;;;;;;;11.57;2.42;;;;;;;;;;4418458;32;20217;-53
2021/05/24 12:59:42;;;;;;;12.45;2.55;;;;;;;;;;4418882;32;20578;-53
2021/05/24 13:02:08;;;;;;;12.60;2.80;;;;;;;;;;4418934;32;20221;-53
2021/05/24 13:04:35;;;;;;;11.07;2.22;;;;;;;;;;4404465;32;20737;-53
2021/05/24 13:07:01;;;;;;;5.57;2.22;;;;;;;;;;4404655;32;20634;-53
2021/05/24 13:09:29;;;;;;;7.55;2.67;;;;;;;;;;4418661;32;20209;-53
2021/05/24 13:12:07;;;;;;;13.88;3.00;;;;;;;;;;4418543;32;20603;-53
2021/05/24 13:14:40;;;;;;;12.88;2.85;;;;;;;;;;4418590;32;20700;-53
2021/05/24 13:17:38;;;;;;;7.93;2.30;;;;;;;;;;4418473;32;20232;-53
2021/05/24 13:30:27;;;;;;;10.70;2.22;;;;;;;;;;4403668;32;20206;-53
2021/05/24 13:32:54;;;;;;;13.02;3.22;;;;;;;;;;4418526;32;20217;-53
2021/05/24 13:35:33;;;;;;;8.10;2.58;;;;;;;;;;4418574;32;20755;-53
2021/05/24 13:38:09;;;;;;;7.70;2.42;;;;;;;;;;4418154;32;20546;-53
2021/05/24 13:40:35;;;;;;;11.32;2.58;;;;;;;;;;4418820;32;20629;-53
2021/05/24 13:43:01;;;;;;;11.12;2.42;;;;;;;;;;4418343;32;20354;-53
2021/05/24 13:45:26;;;;;;;9.73;2.20;;;;;;;;;;4417985;32;20292;-52
2021/05/24 13:47:52;;;;;;;16.90;2.65;;;;;;;;;;4418246;32;20213;-52
2021/05/24 13:50:17;;;;;;;17.12;3.15;;;;;;;;;;4417546;32;20315;-52
2021/05/24 13:52:43;;;;;;;13.23;2.67;;;;;;;;;;4404536;32;20327;-52
2021/05/24 13:55:10;;;;;;;14.18;2.78;;;;;;;;;;4418092;32;20307;-53
2021/05/24 13:57:37;;;;;;;10.02;2.42;;;;;;;;;;4418027;32;20633;-52
2021/05/24 14:00:11;;;;;;;10.85;2.47;;;;;;;;;;4418447;32;20625;-53
2021/05/24 14:02:36;;;;;;;13.62;2.40;;;;;;;;;;4418566;32;20279;-52
2021/05/24 14:05:03;;;;;;;11.73;2.75;;;;;;;;;;4417638;32;20226;-53
2021/05/24 14:07:28;;;;;;;10.55;2.30;;;;;;;;;;4418121;32;20229;-52
2021/05/24 14:09:54;;;;;;;18.92;2.33;;;;;;;;;;4417449;32;20668;-52
2021/05/24 14:12:19;;;;;;;10.88;2.62;;;;;;;;;;4417566;32;20368;-52
2021/05/24 14:14:46;;;;;;;11.15;1.90;;;;;;;;;;4417404;32;20213;-53
2021/05/24 14:17:12;;;;;;;6.78;2.50;;;;;;;;;;4417855;32;20393;-53
2021/05/24 14:19:39;;;;;;;6.97;3.15;;;;;;;;;;4407582;32;20209;-53
2021/05/24 14:22:04;;;;;;;12.05;3.67;;;;;;;;;;4402720;32;20609;-53
2021/05/24 14:24:30;;;;;;;6.28;2.45;;;;;;;;;;4402742;32;20623;-52
2021/05/24 14:26:55;;;;;;;10.40;2.62;;;;;;;;;;4402134;32;20233;-53
2021/05/24 14:29:21;;;;;;;15.43;2.37;;;;;;;;;;4388587;32;20257;-53
2021/05/24 14:31:47;;;;;;;10.43;2.25;;;;;;;;;;4411606;32;20239;-53
2021/05/24 14:34:13;;;;;;;6.05;1.87;;;;;;;;;;4403607;32;20225;-53
2021/05/24 14:36:39;;;;;;;11.93;2.70;;;;;;;;;;4417335;32;21004;-52
2021/05/24 14:39:05;;;;;;;7.95;2.92;;;;;;;;;;4417203;32;20201;-53
2021/05/24 14:41:30;;;;;;;11.07;2.50;;;;;;;;;;4403429;32;20229;-52
2021/05/24 14:43:56;;;;;;;9.45;2.67;;;;;;;;;;4417591;32;20231;-52
2021/05/24 14:46:21;;;;;;;10.00;2.55;;;;;;;;;;4417116;32;20260;-52
2021/05/24 14:48:47;;;;;;;4.57;1.90;;;;;;;;;;4417338;32;20201;-53
2021/05/24 14:51:13;;;;;;;9.10;2.00;;;;;;;;;;4417253;32;20228;-53
2021/05/24 14:53:38;;;;;;;9.48;2.33;;;;;;;;;;4417282;32;20231;-53